sensor_id;sensor_type;location;lat;lon;timestamp;P1;durP1;ratioP1;P2;durP2;ratioP2
9422;SDS011;65863;49.506;10.400;2023-01-26T00:02:40;19.47;;;11.80;;
9422;SDS011;65863;49.506;10.400;2023-01-26T00:05:24;22.30;;;11.63;;
9422;SDS011;65863;49.506;10.400;2023-01-26T00:08:08;24.17;;;12.83;;
9422;SDS011;65863;49.506;10.400;2023-01-26T00:10:52;21.83;;;12.70;;
9422;SDS011;65863;49.506;10.400;2023-01-26T00:13:36;22.10;;;12.20;;
9422;SDS011;65863;49.506;10.400;2023-01-26T00:16:21;20.40;;;12.60;;
9422;SDS011;65863;49.506;10.400;2023-01-26T00:19:05;20.60;;;11.70;;
9422;SDS011;65863;49.506;10.400;2023-01-26T00:21:50;18.97;;;12.07;;
9422;SDS011;65863;49.506;10.400;2023-01-26T00:24:33;25.30;;;12.60;;
9422;SDS011;65863;49.506;10.400;2023-01-26T00:27:18;20.13;;;12.07;;
9422;SDS011;65863;49.506;10.400;2023-01-26T00:30:02;18.93;;;11.67;;
9422;SDS011;65863;49.506;10.400;2023-01-26T00:32:47;22.47;;;12.43;;
9422;SDS011;65863;49.506;10.400;2023-01-26T00:35:33;18.70;;;11.83;;
9422;SDS011;65863;49.506;10.400;2023-01-26T00:38:18;20.60;;;11.23;;
9422;SDS011;65863;49.506;10.400;2023-01-26T00:41:02;19.77;;;12.03;;
9422;SDS011;65863;49.506;10.400;2023-01-26T00:43:46;22.93;;;12.67;;
9422;SDS011;65863;49.506;10.400;2023-01-26T00:46:31;18.10;;;11.47;;
9422;SDS011;65863;49.506;10.400;2023-01-26T00:49:15;18.77;;;12.07;;
9422;SDS011;65863;49.506;10.400;2023-01-26T00:51:59;20.57;;;12.17;;
9422;SDS011;65863;49.506;10.400;2023-01-26T00:54:44;20.73;;;12.07;;
9422;SDS011;65863;49.506;10.400;2023-01-26T00:57:29;13.90;;;9.17;;
9422;SDS011;65863;49.506;10.400;2023-01-26T01:00:14;15.90;;;9.43;;
9422;SDS011;65863;49.506;10.400;2023-01-26T01:03:03;14.83;;;8.57;;
9422;SDS011;65863;49.506;10.400;2023-01-26T01:05:48;15.40;;;8.63;;
9422;SDS011;65863;49.506;10.400;2023-01-26T01:08:32;10.83;;;7.80;;
9422;SDS011;65863;49.506;10.400;2023-01-26T01:11:18;12.93;;;8.07;;
9422;SDS011;65863;49.506;10.400;2023-01-26T01:14:02;12.13;;;8.50;;
9422;SDS011;65863;49.506;10.400;2023-01-26T01:16:47;17.13;;;8.70;;
9422;SDS011;65863;49.506;10.400;2023-01-26T01:19:31;15.93;;;9.00;;
9422;SDS011;65863;49.506;10.400;2023-01-26T01:22:15;13.80;;;8.00;;
9422;SDS011;65863;49.506;10.400;2023-01-26T01:24:59;15.67;;;9.30;;
9422;SDS011;65863;49.506;10.400;2023-01-26T01:27:43;12.67;;;8.30;;
9422;SDS011;65863;49.506;10.400;2023-01-26T01:30:27;12.63;;;8.43;;
9422;SDS011;65863;49.506;10.400;2023-01-26T01:33:11;13.33;;;8.33;;
9422;SDS011;65863;49.506;10.400;2023-01-26T01:35:56;14.83;;;9.30;;
9422;SDS011;65863;49.506;10.400;2023-01-26T01:38:42;16.20;;;8.97;;
9422;SDS011;65863;49.506;10.400;2023-01-26T01:41:27;16.73;;;9.07;;
9422;SDS011;65863;49.506;10.400;2023-01-26T01:46:58;15.03;;;9.73;;
9422;SDS011;65863;49.506;10.400;2023-01-26T01:49:45;15.03;;;8.77;;
9422;SDS011;65863;49.506;10.400;2023-01-26T01:52:32;13.03;;;8.50;;
9422;SDS011;65863;49.506;10.400;2023-01-26T01:55:16;13.93;;;8.80;;
9422;SDS011;65863;49.506;10.400;2023-01-26T01:58:02;12.77;;;8.83;;
9422;SDS011;65863;49.506;10.400;2023-01-26T02:00:47;15.37;;;9.60;;
9422;SDS011;65863;49.506;10.400;2023-01-26T02:03:31;17.10;;;9.33;;
9422;SDS011;65863;49.506;10.400;2023-01-26T02:06:18;18.00;;;9.30;;
9422;SDS011;65863;49.506;10.400;2023-01-26T02:09:30;14.37;;;9.37;;
9422;SDS011;65863;49.506;10.400;2023-01-26T02:12:39;16.20;;;9.43;;
9422;SDS011;65863;49.506;10.400;2023-01-26T02:15:24;18.03;;;11.50;;
9422;SDS011;65863;49.506;10.400;2023-01-26T02:18:08;16.63;;;9.93;;
9422;SDS011;65863;49.506;10.400;2023-01-26T02:20:55;18.53;;;10.70;;
9422;SDS011;65863;49.506;10.400;2023-01-26T02:26:55;18.83;;;11.23;;
9422;SDS011;65863;49.506;10.400;2023-01-26T02:29:40;18.23;;;11.47;;
9422;SDS011;65863;49.506;10.400;2023-01-26T02:32:24;20.00;;;11.50;;
9422;SDS011;65863;49.506;10.400;2023-01-26T02:35:11;16.90;;;10.80;;
9422;SDS011;65863;49.506;10.400;2023-01-26T02:37:55;19.37;;;12.20;;
9422;SDS011;65863;49.506;10.400;2023-01-26T02:40:42;18.50;;;11.53;;
9422;SDS011;65863;49.506;10.400;2023-01-26T02:43:32;21.73;;;12.30;;
9422;SDS011;65863;49.506;10.400;2023-01-26T02:46:17;18.40;;;10.77;;
9422;SDS011;65863;49.506;10.400;2023-01-26T02:49:01;18.03;;;11.03;;
9422;SDS011;65863;49.506;10.400;2023-01-26T02:52:04;17.30;;;10.93;;
9422;SDS011;65863;49.506;10.400;2023-01-26T02:54:49;16.70;;;10.20;;
9422;SDS011;65863;49.506;10.400;2023-01-26T02:57:56;14.97;;;9.70;;
9422;SDS011;65863;49.506;10.400;2023-01-26T03:00:43;17.13;;;10.50;;
9422;SDS011;65863;49.506;10.400;2023-01-26T03:03:28;15.60;;;10.83;;
9422;SDS011;65863;49.506;10.400;2023-01-26T03:06:24;16.10;;;10.60;;
9422;SDS011;65863;49.506;10.400;2023-01-26T03:09:09;17.13;;;10.37;;
9422;SDS011;65863;49.506;10.400;2023-01-26T03:11:53;17.67;;;10.50;;
9422;SDS011;65863;49.506;10.400;2023-01-26T03:14:37;20.50;;;10.83;;
9422;SDS011;65863;49.506;10.400;2023-01-26T03:17:22;20.57;;;12.43;;
9422;SDS011;65863;49.506;10.400;2023-01-26T03:20:06;19.47;;;11.20;;
9422;SDS011;65863;49.506;10.400;2023-01-26T03:23:09;20.10;;;12.73;;
9422;SDS011;65863;49.506;10.400;2023-01-26T03:26:12;20.47;;;12.20;;
9422;SDS011;65863;49.506;10.400;2023-01-26T03:29:15;21.37;;;12.67;;
9422;SDS011;65863;49.506;10.400;2023-01-26T03:32:00;21.77;;;11.53;;
9422;SDS011;65863;49.506;10.400;2023-01-26T03:34:44;23.03;;;13.17;;
9422;SDS011;65863;49.506;10.400;2023-01-26T03:37:28;21.50;;;11.60;;
9422;SDS011;65863;49.506;10.400;2023-01-26T03:40:25;20.27;;;11.87;;
9422;SDS011;65863;49.506;10.400;2023-01-26T03:43:45;20.97;;;13.03;;
9422;SDS011;65863;49.506;10.400;2023-01-26T03:46:47;22.20;;;12.80;;
9422;SDS011;65863;49.506;10.400;2023-01-26T03:49:51;20.03;;;12.73;;
9422;SDS011;65863;49.506;10.400;2023-01-26T03:52:53;21.57;;;12.83;;
9422;SDS011;65863;49.506;10.400;2023-01-26T03:55:57;19.90;;;12.43;;
9422;SDS011;65863;49.506;10.400;2023-01-26T03:59:01;19.67;;;12.27;;
9422;SDS011;65863;49.506;10.400;2023-01-26T04:01:53;21.23;;;12.40;;
9422;SDS011;65863;49.506;10.400;2023-01-26T04:04:55;22.40;;;12.80;;
9422;SDS011;65863;49.506;10.400;2023-01-26T04:08:03;22.27;;;11.27;;
9422;SDS011;65863;49.506;10.400;2023-01-26T04:11:12;21.30;;;13.30;;
9422;SDS011;65863;49.506;10.400;2023-01-26T04:13:56;20.70;;;11.97;;
9422;SDS011;65863;49.506;10.400;2023-01-26T04:17:01;23.77;;;13.90;;
9422;SDS011;65863;49.506;10.400;2023-01-26T04:20:05;25.87;;;12.93;;
9422;SDS011;65863;49.506;10.400;2023-01-26T04:23:15;22.03;;;13.10;;
9422;SDS011;65863;49.506;10.400;2023-01-26T04:26:00;23.90;;;13.60;;
9422;SDS011;65863;49.506;10.400;2023-01-26T04:28:45;26.40;;;14.30;;
9422;SDS011;65863;49.506;10.400;2023-01-26T04:31:29;24.70;;;13.83;;
9422;SDS011;65863;49.506;10.400;2023-01-26T04:34:13;25.87;;;14.77;;
9422;SDS011;65863;49.506;10.400;2023-01-26T04:36:58;24.60;;;13.53;;
9422;SDS011;65863;49.506;10.400;2023-01-26T04:39:48;24.37;;;14.10;;
9422;SDS011;65863;49.506;10.400;2023-01-26T04:42:32;23.13;;;13.27;;
9422;SDS011;65863;49.506;10.400;2023-01-26T04:45:18;25.50;;;14.53;;
9422;SDS011;65863;49.506;10.400;2023-01-26T04:48:04;25.20;;;14.27;;
9422;SDS011;65863;49.506;10.400;2023-01-26T04:50:55;26.80;;;15.23;;
9422;SDS011;65863;49.506;10.400;2023-01-26T04:53:41;27.83;;;13.97;;
9422;SDS011;65863;49.506;10.400;2023-01-26T04:56:27;27.57;;;14.23;;
9422;SDS011;65863;49.506;10.400;2023-01-26T04:59:14;27.03;;;14.60;;
9422;SDS011;65863;49.506;10.400;2023-01-26T05:02:01;28.10;;;14.60;;
9422;SDS011;65863;49.506;10.400;2023-01-26T05:04:45;26.90;;;14.43;;
9422;SDS011;65863;49.506;10.400;2023-01-26T05:07:31;31.23;;;15.03;;
9422;SDS011;65863;49.506;10.400;2023-01-26T05:10:16;27.63;;;15.70;;
9422;SDS011;65863;49.506;10.400;2023-01-26T05:13:14;31.00;;;15.60;;
9422;SDS011;65863;49.506;10.400;2023-01-26T05:16:18;29.40;;;15.13;;
9422;SDS011;65863;49.506;10.400;2023-01-26T05:19:18;29.33;;;15.60;;
9422;SDS011;65863;49.506;10.400;2023-01-26T05:22:21;29.70;;;15.10;;
9422;SDS011;65863;49.506;10.400;2023-01-26T05:25:25;29.10;;;15.37;;
9422;SDS011;65863;49.506;10.400;2023-01-26T05:28:18;30.67;;;15.87;;
9422;SDS011;65863;49.506;10.400;2023-01-26T05:31:02;29.40;;;16.03;;
9422;SDS011;65863;49.506;10.400;2023-01-26T05:33:47;28.70;;;15.57;;
9422;SDS011;65863;49.506;10.400;2023-01-26T05:36:36;30.40;;;16.37;;
9422;SDS011;65863;49.506;10.400;2023-01-26T05:39:21;24.73;;;14.47;;
9422;SDS011;65863;49.506;10.400;2023-01-26T05:42:05;24.60;;;13.20;;
9422;SDS011;65863;49.506;10.400;2023-01-26T05:45:15;29.00;;;14.80;;
9422;SDS011;65863;49.506;10.400;2023-01-26T05:47:59;31.07;;;15.57;;
9422;SDS011;65863;49.506;10.400;2023-01-26T05:50:43;27.57;;;15.47;;
9422;SDS011;65863;49.506;10.400;2023-01-26T05:53:36;28.57;;;14.20;;
9422;SDS011;65863;49.506;10.400;2023-01-26T05:56:20;30.10;;;15.03;;
9422;SDS011;65863;49.506;10.400;2023-01-26T05:59:11;26.07;;;14.30;;
9422;SDS011;65863;49.506;10.400;2023-01-26T06:01:55;26.50;;;14.17;;
9422;SDS011;65863;49.506;10.400;2023-01-26T06:04:40;27.50;;;13.83;;
9422;SDS011;65863;49.506;10.400;2023-01-26T06:07:24;26.33;;;13.23;;
9422;SDS011;65863;49.506;10.400;2023-01-26T06:10:23;24.73;;;14.10;;
9422;SDS011;65863;49.506;10.400;2023-01-26T06:13:26;30.77;;;15.20;;
9422;SDS011;65863;49.506;10.400;2023-01-26T06:16:19;27.47;;;14.03;;
9422;SDS011;65863;49.506;10.400;2023-01-26T06:19:03;30.87;;;14.77;;
9422;SDS011;65863;49.506;10.400;2023-01-26T06:21:49;28.37;;;15.70;;
9422;SDS011;65863;49.506;10.400;2023-01-26T06:24:33;27.57;;;14.57;;
9422;SDS011;65863;49.506;10.400;2023-01-26T06:27:18;23.60;;;13.67;;
9422;SDS011;65863;49.506;10.400;2023-01-26T06:30:05;28.33;;;14.37;;
9422;SDS011;65863;49.506;10.400;2023-01-26T06:32:50;26.00;;;13.30;;
9422;SDS011;65863;49.506;10.400;2023-01-26T06:35:35;26.83;;;13.77;;
9422;SDS011;65863;49.506;10.400;2023-01-26T06:38:22;24.43;;;13.07;;
9422;SDS011;65863;49.506;10.400;2023-01-26T06:41:06;23.57;;;13.63;;
9422;SDS011;65863;49.506;10.400;2023-01-26T06:43:51;25.10;;;14.17;;
9422;SDS011;65863;49.506;10.400;2023-01-26T06:46:36;27.10;;;14.07;;
9422;SDS011;65863;49.506;10.400;2023-01-26T06:49:20;26.63;;;14.60;;
9422;SDS011;65863;49.506;10.400;2023-01-26T06:55:26;26.77;;;14.47;;
9422;SDS011;65863;49.506;10.400;2023-01-26T06:58:31;24.03;;;13.93;;
9422;SDS011;65863;49.506;10.400;2023-01-26T07:01:25;28.30;;;14.80;;
9422;SDS011;65863;49.506;10.400;2023-01-26T07:04:09;27.53;;;14.17;;
9422;SDS011;65863;49.506;10.400;2023-01-26T07:06:53;32.30;;;15.07;;
9422;SDS011;65863;49.506;10.400;2023-01-26T07:09:37;25.53;;;14.70;;
9422;SDS011;65863;49.506;10.400;2023-01-26T07:12:22;33.88;;;19.45;;
9422;SDS011;65863;49.506;10.400;2023-01-26T07:15:06;30.53;;;17.07;;
9422;SDS011;65863;49.506;10.400;2023-01-26T07:17:51;35.13;;;22.25;;
9422;SDS011;65863;49.506;10.400;2023-01-26T07:20:35;37.13;;;17.67;;
9422;SDS011;65863;49.506;10.400;2023-01-26T07:23:19;31.40;;;16.27;;
9422;SDS011;65863;49.506;10.400;2023-01-26T07:26:04;30.43;;;15.70;;
9422;SDS011;65863;49.506;10.400;2023-01-26T07:28:48;29.17;;;14.73;;
9422;SDS011;65863;49.506;10.400;2023-01-26T07:31:32;24.50;;;13.90;;
9422;SDS011;65863;49.506;10.400;2023-01-26T07:34:16;21.00;;;12.30;;
9422;SDS011;65863;49.506;10.400;2023-01-26T07:37:00;21.70;;;12.53;;
9422;SDS011;65863;49.506;10.400;2023-01-26T07:39:44;23.03;;;12.67;;
9422;SDS011;65863;49.506;10.400;2023-01-26T07:42:29;22.00;;;12.43;;
9422;SDS011;65863;49.506;10.400;2023-01-26T07:45:32;25.50;;;13.07;;
9422;SDS011;65863;49.506;10.400;2023-01-26T07:48:17;24.83;;;14.23;;
9422;SDS011;65863;49.506;10.400;2023-01-26T07:51:04;24.07;;;14.23;;
9422;SDS011;65863;49.506;10.400;2023-01-26T07:53:51;25.53;;;13.70;;
9422;SDS011;65863;49.506;10.400;2023-01-26T07:56:35;23.60;;;13.23;;
9422;SDS011;65863;49.506;10.400;2023-01-26T07:59:19;24.70;;;13.17;;
9422;SDS011;65863;49.506;10.400;2023-01-26T08:02:03;24.63;;;13.73;;
9422;SDS011;65863;49.506;10.400;2023-01-26T08:04:48;24.30;;;13.80;;
9422;SDS011;65863;49.506;10.400;2023-01-26T08:07:32;28.47;;;15.13;;
9422;SDS011;65863;49.506;10.400;2023-01-26T08:10:16;26.03;;;14.80;;
9422;SDS011;65863;49.506;10.400;2023-01-26T08:13:00;24.57;;;14.33;;
9422;SDS011;65863;49.506;10.400;2023-01-26T08:15:51;25.77;;;13.13;;
9422;SDS011;65863;49.506;10.400;2023-01-26T08:18:41;25.02;;;14.00;;
9422;SDS011;65863;49.506;10.400;2023-01-26T08:21:27;26.77;;;14.43;;
9422;SDS011;65863;49.506;10.400;2023-01-26T08:24:11;28.53;;;14.43;;
9422;SDS011;65863;49.506;10.400;2023-01-26T08:26:56;24.50;;;12.87;;
9422;SDS011;65863;49.506;10.400;2023-01-26T08:29:40;25.60;;;14.13;;
9422;SDS011;65863;49.506;10.400;2023-01-26T08:32:24;31.20;;;14.97;;
9422;SDS011;65863;49.506;10.400;2023-01-26T08:35:08;29.13;;;14.50;;
9422;SDS011;65863;49.506;10.400;2023-01-26T08:37:53;29.07;;;15.63;;
9422;SDS011;65863;49.506;10.400;2023-01-26T08:40:37;28.87;;;15.60;;
9422;SDS011;65863;49.506;10.400;2023-01-26T08:43:21;31.57;;;15.17;;
9422;SDS011;65863;49.506;10.400;2023-01-26T08:46:05;27.17;;;14.73;;
9422;SDS011;65863;49.506;10.400;2023-01-26T08:48:50;25.13;;;14.20;;
9422;SDS011;65863;49.506;10.400;2023-01-26T08:51:33;26.10;;;13.93;;
9422;SDS011;65863;49.506;10.400;2023-01-26T08:54:17;24.23;;;13.57;;
9422;SDS011;65863;49.506;10.400;2023-01-26T08:57:01;20.30;;;11.67;;
9422;SDS011;65863;49.506;10.400;2023-01-26T08:59:45;22.30;;;12.33;;
9422;SDS011;65863;49.506;10.400;2023-01-26T09:02:32;21.40;;;12.20;;
9422;SDS011;65863;49.506;10.400;2023-01-26T09:06:05;19.77;;;11.63;;
9422;SDS011;65863;49.506;10.400;2023-01-26T09:08:51;22.70;;;12.00;;
9422;SDS011;65863;49.506;10.400;2023-01-26T09:11:34;25.30;;;11.97;;
9422;SDS011;65863;49.506;10.400;2023-01-26T09:14:18;21.87;;;11.87;;
9422;SDS011;65863;49.506;10.400;2023-01-26T09:17:02;22.37;;;11.57;;
9422;SDS011;65863;49.506;10.400;2023-01-26T09:19:46;21.10;;;11.97;;
9422;SDS011;65863;49.506;10.400;2023-01-26T09:22:30;25.77;;;11.90;;
9422;SDS011;65863;49.506;10.400;2023-01-26T09:25:14;25.60;;;12.93;;
9422;SDS011;65863;49.506;10.400;2023-01-26T09:27:58;24.53;;;12.27;;
9422;SDS011;65863;49.506;10.400;2023-01-26T09:30:45;22.93;;;11.63;;
9422;SDS011;65863;49.506;10.400;2023-01-26T09:33:29;20.90;;;11.77;;
9422;SDS011;65863;49.506;10.400;2023-01-26T09:36:13;23.13;;;11.17;;
9422;SDS011;65863;49.506;10.400;2023-01-26T09:38:57;21.00;;;11.33;;
9422;SDS011;65863;49.506;10.400;2023-01-26T09:41:55;23.27;;;11.23;;
9422;SDS011;65863;49.506;10.400;2023-01-26T09:48:08;24.43;;;11.90;;
9422;SDS011;65863;49.506;10.400;2023-01-26T09:51:03;26.10;;;13.53;;
9422;SDS011;65863;49.506;10.400;2023-01-26T09:57:35;23.83;;;12.27;;
9422;SDS011;65863;49.506;10.400;2023-01-26T10:00:25;26.10;;;13.13;;
9422;SDS011;65863;49.506;10.400;2023-01-26T10:06:25;26.23;;;13.23;;
9422;SDS011;65863;49.506;10.400;2023-01-26T10:09:31;28.10;;;14.40;;
9422;SDS011;65863;49.506;10.400;2023-01-26T10:18:49;24.50;;;13.23;;
9422;SDS011;65863;49.506;10.400;2023-01-26T10:21:43;24.60;;;13.97;;
9422;SDS011;65863;49.506;10.400;2023-01-26T10:24:30;26.07;;;14.10;;
9422;SDS011;65863;49.506;10.400;2023-01-26T10:27:16;31.63;;;15.23;;
9422;SDS011;65863;49.506;10.400;2023-01-26T10:30:01;29.50;;;15.73;;
9422;SDS011;65863;49.506;10.400;2023-01-26T10:32:46;26.27;;;14.53;;
9422;SDS011;65863;49.506;10.400;2023-01-26T10:35:34;24.60;;;13.23;;
9422;SDS011;65863;49.506;10.400;2023-01-26T10:41:22;27.90;;;14.17;;
9422;SDS011;65863;49.506;10.400;2023-01-26T10:44:21;28.83;;;14.47;;
9422;SDS011;65863;49.506;10.400;2023-01-26T10:47:17;32.07;;;15.07;;
9422;SDS011;65863;49.506;10.400;2023-01-26T10:50:20;31.47;;;15.47;;
9422;SDS011;65863;49.506;10.400;2023-01-26T10:53:09;31.20;;;14.73;;
9422;SDS011;65863;49.506;10.400;2023-01-26T10:56:08;31.20;;;15.87;;
9422;SDS011;65863;49.506;10.400;2023-01-26T10:58:56;28.00;;;14.60;;
9422;SDS011;65863;49.506;10.400;2023-01-26T11:01:52;26.53;;;14.93;;
9422;SDS011;65863;49.506;10.400;2023-01-26T11:07:52;27.07;;;13.97;;
9422;SDS011;65863;49.506;10.400;2023-01-26T11:10:50;26.30;;;14.97;;
9422;SDS011;65863;49.506;10.400;2023-01-26T11:13:35;27.00;;;14.63;;
9422;SDS011;65863;49.506;10.400;2023-01-26T11:16:20;29.13;;;16.10;;
9422;SDS011;65863;49.506;10.400;2023-01-26T11:19:13;33.27;;;17.37;;
9422;SDS011;65863;49.506;10.400;2023-01-26T11:25:27;31.08;;;16.02;;
9422;SDS011;65863;49.506;10.400;2023-01-26T11:28:20;27.00;;;15.43;;
9422;SDS011;65863;49.506;10.400;2023-01-26T11:34:02;31.07;;;16.90;;
9422;SDS011;65863;49.506;10.400;2023-01-26T11:36:51;27.47;;;15.33;;
9422;SDS011;65863;49.506;10.400;2023-01-26T11:45:51;27.43;;;15.07;;
9422;SDS011;65863;49.506;10.400;2023-01-26T11:48:59;26.60;;;15.13;;
9422;SDS011;65863;49.506;10.400;2023-01-26T11:51:59;28.53;;;15.67;;
9422;SDS011;65863;49.506;10.400;2023-01-26T11:58:02;31.87;;;15.87;;
9422;SDS011;65863;49.506;10.400;2023-01-26T12:01:00;33.20;;;21.70;;
9422;SDS011;65863;49.506;10.400;2023-01-26T12:03:50;33.13;;;17.27;;
9422;SDS011;65863;49.506;10.400;2023-01-26T12:06:41;28.43;;;16.80;;
9422;SDS011;65863;49.506;10.400;2023-01-26T12:09:33;24.97;;;14.23;;
9422;SDS011;65863;49.506;10.400;2023-01-26T12:15:32;29.87;;;15.37;;
9422;SDS011;65863;49.506;10.400;2023-01-26T12:18:28;30.70;;;15.07;;
9422;SDS011;65863;49.506;10.400;2023-01-26T12:21:17;31.23;;;15.43;;
9422;SDS011;65863;49.506;10.400;2023-01-26T12:24:03;28.33;;;14.27;;
9422;SDS011;65863;49.506;10.400;2023-01-26T12:26:49;27.40;;;13.90;;
9422;SDS011;65863;49.506;10.400;2023-01-26T12:29:42;23.27;;;14.00;;
9422;SDS011;65863;49.506;10.400;2023-01-26T12:32:34;26.37;;;14.47;;
9422;SDS011;65863;49.506;10.400;2023-01-26T12:35:22;22.63;;;12.93;;
9422;SDS011;65863;49.506;10.400;2023-01-26T12:38:34;20.30;;;11.90;;
9422;SDS011;65863;49.506;10.400;2023-01-26T12:41:57;21.77;;;11.80;;
9422;SDS011;65863;49.506;10.400;2023-01-26T12:44:52;18.33;;;10.90;;
9422;SDS011;65863;49.506;10.400;2023-01-26T12:47:47;16.80;;;9.93;;
9422;SDS011;65863;49.506;10.400;2023-01-26T12:53:30;16.37;;;10.80;;
9422;SDS011;65863;49.506;10.400;2023-01-26T12:56:32;22.80;;;12.03;;
9422;SDS011;65863;49.506;10.400;2023-01-26T12:59:24;18.20;;;10.90;;
9422;SDS011;65863;49.506;10.400;2023-01-26T13:04:58;15.17;;;9.87;;
9422;SDS011;65863;49.506;10.400;2023-01-26T13:07:44;15.47;;;10.07;;
9422;SDS011;65863;49.506;10.400;2023-01-26T13:10:28;15.53;;;9.00;;
9422;SDS011;65863;49.506;10.400;2023-01-26T13:13:28;15.57;;;8.57;;
9422;SDS011;65863;49.506;10.400;2023-01-26T13:18:59;12.53;;;7.97;;
9422;SDS011;65863;49.506;10.400;2023-01-26T13:21:44;14.43;;;9.20;;
9422;SDS011;65863;49.506;10.400;2023-01-26T13:33:11;14.53;;;9.27;;
9422;SDS011;65863;49.506;10.400;2023-01-26T13:36:01;13.77;;;8.77;;
9422;SDS011;65863;49.506;10.400;2023-01-26T13:38:54;15.37;;;8.90;;
9422;SDS011;65863;49.506;10.400;2023-01-26T13:41:44;14.43;;;8.77;;
9422;SDS011;65863;49.506;10.400;2023-01-26T13:44:37;12.33;;;8.67;;
9422;SDS011;65863;49.506;10.400;2023-01-26T13:47:27;13.77;;;8.60;;
9422;SDS011;65863;49.506;10.400;2023-01-26T13:56:22;13.37;;;8.07;;
9422;SDS011;65863;49.506;10.400;2023-01-26T13:59:08;16.87;;;8.63;;
9422;SDS011;65863;49.506;10.400;2023-01-26T14:01:55;12.63;;;7.67;;
9422;SDS011;65863;49.506;10.400;2023-01-26T14:04:41;11.10;;;7.20;;
9422;SDS011;65863;49.506;10.400;2023-01-26T14:07:37;12.47;;;6.20;;
9422;SDS011;65863;49.506;10.400;2023-01-26T14:10:23;10.93;;;6.33;;
9422;SDS011;65863;49.506;10.400;2023-01-26T14:13:12;11.53;;;5.53;;
9422;SDS011;65863;49.506;10.400;2023-01-26T14:16:05;6.70;;;4.93;;
9422;SDS011;65863;49.506;10.400;2023-01-26T14:18:50;9.07;;;4.90;;
9422;SDS011;65863;49.506;10.400;2023-01-26T14:21:44;9.50;;;5.20;;
9422;SDS011;65863;49.506;10.400;2023-01-26T14:24:32;9.57;;;5.53;;
9422;SDS011;65863;49.506;10.400;2023-01-26T14:30:25;9.50;;;5.33;;
9422;SDS011;65863;49.506;10.400;2023-01-26T14:33:13;9.70;;;6.03;;
9422;SDS011;65863;49.506;10.400;2023-01-26T14:35:59;6.47;;;4.70;;
9422;SDS011;65863;49.506;10.400;2023-01-26T14:38:45;9.47;;;5.90;;
9422;SDS011;65863;49.506;10.400;2023-01-26T14:41:32;8.10;;;5.20;;
9422;SDS011;65863;49.506;10.400;2023-01-26T14:44:19;6.87;;;4.43;;
9422;SDS011;65863;49.506;10.400;2023-01-26T14:47:08;7.63;;;5.80;;
9422;SDS011;65863;49.506;10.400;2023-01-26T14:50:04;8.00;;;4.83;;
9422;SDS011;65863;49.506;10.400;2023-01-26T14:52:54;8.60;;;5.93;;
9422;SDS011;65863;49.506;10.400;2023-01-26T14:55:38;10.73;;;6.20;;
9422;SDS011;65863;49.506;10.400;2023-01-26T14:58:27;8.27;;;6.07;;
9422;SDS011;65863;49.506;10.400;2023-01-26T15:01:19;10.67;;;7.23;;
9422;SDS011;65863;49.506;10.400;2023-01-26T15:04:05;7.10;;;5.37;;
9422;SDS011;65863;49.506;10.400;2023-01-26T15:16:10;7.03;;;4.97;;
9422;SDS011;65863;49.506;10.400;2023-01-26T15:19:01;6.70;;;4.83;;
9422;SDS011;65863;49.506;10.400;2023-01-26T15:21:47;10.83;;;7.87;;
9422;SDS011;65863;49.506;10.400;2023-01-26T15:24:32;13.50;;;7.60;;
9422;SDS011;65863;49.506;10.400;2023-01-26T15:27:16;30.93;;;16.30;;
9422;SDS011;65863;49.506;10.400;2023-01-26T15:30:00;18.30;;;10.23;;
9422;SDS011;65863;49.506;10.400;2023-01-26T15:32:47;16.67;;;8.77;;
9422;SDS011;65863;49.506;10.400;2023-01-26T15:35:32;21.40;;;13.27;;
9422;SDS011;65863;49.506;10.400;2023-01-26T15:38:17;16.07;;;8.27;;
9422;SDS011;65863;49.506;10.400;2023-01-26T15:41:01;8.63;;;6.23;;
9422;SDS011;65863;49.506;10.400;2023-01-26T15:43:45;9.50;;;6.77;;
9422;SDS011;65863;49.506;10.400;2023-01-26T15:46:36;10.37;;;7.23;;
9422;SDS011;65863;49.506;10.400;2023-01-26T15:49:20;9.77;;;6.40;;
9422;SDS011;65863;49.506;10.400;2023-01-26T15:52:12;10.97;;;7.17;;
9422;SDS011;65863;49.506;10.400;2023-01-26T15:54:58;10.23;;;6.07;;
9422;SDS011;65863;49.506;10.400;2023-01-26T15:57:43;8.50;;;6.40;;
9422;SDS011;65863;49.506;10.400;2023-01-26T16:00:26;10.17;;;6.33;;
9422;SDS011;65863;49.506;10.400;2023-01-26T16:03:14;7.10;;;4.90;;
9422;SDS011;65863;49.506;10.400;2023-01-26T16:06:00;11.93;;;6.87;;
9422;SDS011;65863;49.506;10.400;2023-01-26T16:08:43;8.50;;;6.17;;
9422;SDS011;65863;49.506;10.400;2023-01-26T16:11:28;9.37;;;6.03;;
9422;SDS011;65863;49.506;10.400;2023-01-26T16:14:16;10.13;;;6.50;;
9422;SDS011;65863;49.506;10.400;2023-01-26T16:17:01;8.83;;;6.30;;
9422;SDS011;65863;49.506;10.400;2023-01-26T16:19:45;8.00;;;6.00;;
9422;SDS011;65863;49.506;10.400;2023-01-26T16:22:29;19.07;;;11.73;;
9422;SDS011;65863;49.506;10.400;2023-01-26T16:25:15;8.97;;;5.90;;
9422;SDS011;65863;49.506;10.400;2023-01-26T16:28:05;9.77;;;5.20;;
9422;SDS011;65863;49.506;10.400;2023-01-26T16:30:49;7.47;;;5.40;;
9422;SDS011;65863;49.506;10.400;2023-01-26T16:33:34;9.57;;;6.13;;
9422;SDS011;65863;49.506;10.400;2023-01-26T16:36:18;11.57;;;6.23;;
9422;SDS011;65863;49.506;10.400;2023-01-26T16:39:03;9.57;;;5.97;;
9422;SDS011;65863;49.506;10.400;2023-01-26T16:41:47;8.43;;;5.80;;
9422;SDS011;65863;49.506;10.400;2023-01-26T16:44:31;7.83;;;6.50;;
9422;SDS011;65863;49.506;10.400;2023-01-26T16:47:16;7.53;;;5.47;;
9422;SDS011;65863;49.506;10.400;2023-01-26T16:50:00;7.60;;;5.17;;
9422;SDS011;65863;49.506;10.400;2023-01-26T16:52:44;7.17;;;4.83;;
9422;SDS011;65863;49.506;10.400;2023-01-26T16:55:30;8.00;;;5.50;;
9422;SDS011;65863;49.506;10.400;2023-01-26T16:58:14;10.97;;;5.97;;
9422;SDS011;65863;49.506;10.400;2023-01-26T17:00:58;11.97;;;6.10;;
9422;SDS011;65863;49.506;10.400;2023-01-26T17:03:43;9.80;;;7.07;;
9422;SDS011;65863;49.506;10.400;2023-01-26T17:06:28;13.47;;;7.27;;
9422;SDS011;65863;49.506;10.400;2023-01-26T17:09:12;12.80;;;7.70;;
9422;SDS011;65863;49.506;10.400;2023-01-26T17:11:56;12.40;;;8.23;;
9422;SDS011;65863;49.506;10.400;2023-01-26T17:14:40;12.70;;;8.70;;
9422;SDS011;65863;49.506;10.400;2023-01-26T17:17:24;11.13;;;8.37;;
9422;SDS011;65863;49.506;10.400;2023-01-26T17:20:09;13.53;;;8.17;;
9422;SDS011;65863;49.506;10.400;2023-01-26T17:22:55;12.53;;;8.73;;
9422;SDS011;65863;49.506;10.400;2023-01-26T17:25:39;12.80;;;8.43;;
9422;SDS011;65863;49.506;10.400;2023-01-26T17:28:22;13.03;;;9.00;;
9422;SDS011;65863;49.506;10.400;2023-01-26T17:31:07;13.35;;;9.73;;
9422;SDS011;65863;49.506;10.400;2023-01-26T17:33:53;11.27;;;7.90;;
9422;SDS011;65863;49.506;10.400;2023-01-26T17:36:37;12.87;;;9.13;;
9422;SDS011;65863;49.506;10.400;2023-01-26T17:39:21;12.90;;;8.80;;
9422;SDS011;65863;49.506;10.400;2023-01-26T17:42:06;90.10;;;48.10;;
9422;SDS011;65863;49.506;10.400;2023-01-26T17:44:50;12.93;;;8.33;;
9422;SDS011;65863;49.506;10.400;2023-01-26T17:47:35;12.70;;;8.33;;
9422;SDS011;65863;49.506;10.400;2023-01-26T17:50:21;13.63;;;8.13;;
9422;SDS011;65863;49.506;10.400;2023-01-26T17:53:10;11.53;;;7.87;;
9422;SDS011;65863;49.506;10.400;2023-01-26T17:55:54;13.27;;;8.10;;
9422;SDS011;65863;49.506;10.400;2023-01-26T17:58:38;10.57;;;8.47;;
9422;SDS011;65863;49.506;10.400;2023-01-26T18:01:24;10.07;;;8.00;;